Time;durP1;ratioP1;P1;durP2;ratioP2;P2;SDS_P1;SDS_P2;PMS_P1;PMS_P2;Temp;Humidity;BMP_temperature;BMP_pressure;BME280_temperature;BME280_humidity;BME280_pressure;Samples;Min_cycle;Max_cycle;Signal;HPM_P1;HPM_P2
2021/01/10 00:01:48;;;;;;;22.43;16.47;;;2.80;46.40;;;;;;4940538;29;20183;-90
2021/01/10 00:04:13;;;;;;;22.37;15.77;;;2.60;46.30;;;;;;4923768;29;20166;-89
2021/01/10 00:06:39;;;;;;;22.57;15.83;;;2.20;46.50;;;;;;4924704;29;20426;-89
2021/01/10 00:09:25;;;;;;;22.27;17.00;;;2.50;46.40;;;;;;4924695;29;20174;-89
2021/01/10 00:11:51;;;;;;;19.60;17.05;;;2.90;46.80;;;;;;4924823;29;20261;-90
2021/01/10 00:14:16;;;;;;;19.33;14.97;;;2.40;46.00;;;;;;4923813;29;20245;-89
2021/01/10 00:16:49;;;;;;;21.40;16.87;;;3.10;46.30;;;;;;4933381;28;20194;-88
2021/01/10 00:19:15;;;;;;;18.45;14.30;;;2.90;46.00;;;;;;4960507;29;20605;-90
2021/01/10 00:21:41;;;;;;;19.03;15.87;;;2.60;45.80;;;;;;4951166;28;20236;-89
2021/01/10 00:24:27;;;;;;;24.07;16.53;;;3.00;46.30;;;;;;4958472;29;20273;-89
2021/01/10 00:26:53;;;;;;;20.30;15.48;;;3.00;46.10;;;;;;4958903;29;20695;-89
2021/01/10 00:29:19;;;;;;;23.20;15.43;;;2.80;46.40;;;;;;4959052;29;20236;-89
2021/01/10 00:32:18;;;;;;;22.93;14.83;;;3.30;47.30;;;;;;4961494;28;20181;-89
2021/01/10 00:34:44;;;;;;;20.80;14.18;;;2.70;47.60;;;;;;4959053;29;20180;-89
2021/01/10 00:37:11;;;;;;;19.87;15.03;;;3.40;47.50;;;;;;4958815;29;20205;-89
2021/01/10 00:40:12;;;;;;;19.98;14.02;;;2.70;46.80;;;;;;4958893;29;20178;-89
2021/01/10 00:42:40;;;;;;;19.75;14.63;;;2.80;47.60;;;;;;4974871;28;20169;-89
2021/01/10 00:45:13;;;;;;;18.30;15.07;;;3.00;46.70;;;;;;4958806;29;20166;-89
2021/01/10 00:47:39;;;;;;;19.92;14.68;;;2.90;46.80;;;;;;4958006;29;20169;-88
2021/01/10 00:50:28;;;;;;;18.13;13.93;;;3.20;46.90;;;;;;4958358;29;20252;-89
2021/01/10 00:52:54;;;;;;;22.25;15.20;;;3.10;47.30;;;;;;4958980;29;20216;-89
2021/01/10 00:55:48;;;;;;;22.80;15.90;;;2.80;46.40;;;;;;4973489;28;20265;-89
2021/01/10 00:58:13;;;;;;;20.50;15.60;;;3.20;47.10;;;;;;4957504;29;20169;-89
2021/01/10 01:00:39;;;;;;;17.73;14.53;;;2.60;45.90;;;;;;4957526;29;20257;-89
2021/01/10 01:03:24;;;;;;;14.48;12.55;;;3.00;46.60;;;;;;4958717;29;20166;-89
2021/01/10 01:05:50;;;;;;;18.42;12.52;;;2.80;47.20;;;;;;4963223;29;20257;-91
2021/01/10 01:08:16;;;;;;;15.87;13.90;;;2.60;47.30;;;;;;4981423;28;20313;-90
2021/01/10 01:31:13;;;;;;;15.20;12.43;;;2.50;49.30;;;;;;670395;23;21797;-88
2021/01/10 01:33:40;;;;;;;15.30;12.27;;;2.40;49.10;;;;;;4920432;29;20210;-89
2021/01/10 01:36:18;;;;;;;21.73;14.45;;;2.50;48.90;;;;;;4937690;29;20333;-89
2021/01/10 01:38:45;;;;;;;19.13;14.32;;;2.40;47.70;;;;;;4922121;29;20573;-89
2021/01/10 01:41:17;;;;;;;19.38;13.38;;;2.60;47.30;;;;;;4921789;29;20173;-88
2021/01/10 01:43:43;;;;;;;16.52;12.20;;;2.20;47.00;;;;;;4922660;29;20294;-89
2021/01/10 01:46:16;;;;;;;17.73;12.67;;;3.00;47.10;;;;;;4921544;29;20621;-89
2021/01/10 01:48:42;;;;;;;15.15;12.52;;;3.00;47.60;;;;;;4921591;29;20181;-89
2021/01/10 01:51:08;;;;;;;17.55;12.80;;;3.10;46.80;;;;;;4921700;29;20653;-89
2021/01/10 01:53:42;;;;;;;16.23;13.07;;;2.50;45.80;;;;;;4921465;29;20170;-89
2021/01/10 01:56:07;;;;;;;17.58;12.50;;;3.80;46.50;;;;;;4921397;29;20198;-89
2021/01/10 01:59:08;;;;;;;17.93;13.47;;;3.30;46.20;;;;;;4921398;29;20167;-89
2021/01/10 02:01:37;;;;;;;17.70;12.63;;;3.10;46.40;;;;;;4922506;29;20176;-89
2021/01/10 02:04:18;;;;;;;16.27;12.65;;;2.90;46.30;;;;;;4922123;29;20598;-88
2021/01/10 02:07:09;;;;;;;15.90;12.65;;;2.70;45.40;;;;;;4937188;29;20170;-89
2021/01/10 02:09:43;;;;;;;18.92;13.25;;;3.40;46.80;;;;;;4920921;29;20174;-89
2021/01/10 02:12:11;;;;;;;13.32;11.50;;;2.90;46.70;;;;;;4920822;29;20173;-90
2021/01/10 02:14:50;;;;;;;14.55;11.85;;;3.00;46.00;;;;;;4921209;29;20179;-89
2021/01/10 02:17:16;;;;;;;18.15;12.00;;;3.00;47.00;;;;;;4920901;29;20582;-89
2021/01/10 02:20:00;;;;;;;15.48;12.05;;;3.60;46.60;;;;;;4921594;29;20159;-89
2021/01/10 02:22:31;;;;;;;17.65;11.77;;;2.40;46.40;;;;;;4921638;29;20170;-89
2021/01/10 02:24:57;;;;;;;16.33;12.68;;;2.90;46.00;;;;;;4921160;29;20174;-89
2021/01/10 02:27:23;;;;;;;17.30;11.98;;;2.40;45.80;;;;;;4921174;29;20178;-89
2021/01/10 02:29:50;;;;;;;14.60;12.30;;;2.60;45.60;;;;;;4921552;29;20272;-89
2021/01/10 02:32:19;;;;;;;15.55;12.07;;;2.70;45.50;;;;;;4906724;29;20410;-89
2021/01/10 02:35:05;;;;;;;14.70;13.00;;;3.00;46.50;;;;;;4914546;29;20315;-88
2021/01/10 02:38:03;;;;;;;20.13;13.20;;;3.30;47.00;;;;;;4898292;29;20193;-88
2021/01/10 02:41:15;;;;;;;15.50;12.50;;;3.10;47.00;;;;;;4915213;29;20207;-88
2021/01/10 02:47:16;;;;;;;13.75;10.80;;;2.90;47.30;;;;;;4903333;29;20211;-88
2021/01/10 02:49:42;;;;;;;14.93;11.85;;;2.50;46.40;;;;;;4918008;29;20171;-92
2021/01/10 02:52:07;;;;;;;15.17;12.20;;;2.50;46.80;;;;;;4918116;29;20653;-88
2021/01/10 02:55:12;;;;;;;14.07;11.13;;;2.90;47.00;;;;;;4917322;29;20172;-93
2021/01/10 02:57:38;;;;;;;15.15;12.48;;;3.10;47.50;;;;;;4901601;29;20184;-90
2021/01/10 03:00:07;;;;;;;13.03;10.50;;;2.60;46.50;;;;;;4917161;29;20258;-94
2021/01/10 03:02:45;;;;;;;16.65;11.65;;;3.10;46.60;;;;;;4917160;29;20204;-88
2021/01/10 03:05:12;;;;;;;14.13;10.50;;;3.40;46.10;;;;;;4916551;29;20174;-93
2021/01/10 03:08:16;;;;;;;12.25;10.50;;;3.40;45.30;;;;;;4917748;29;20172;-90
2021/01/10 03:10:42;;;;;;;14.13;11.10;;;3.20;45.90;;;;;;4901148;29;20167;-89
2021/01/10 03:13:08;;;;;;;12.37;10.10;;;2.60;45.10;;;;;;4917415;29;20228;-89
2021/01/10 03:15:52;;;;;;;17.10;11.03;;;3.10;45.40;;;;;;4916988;29;20518;-88
2021/01/10 03:18:21;;;;;;;13.10;10.57;;;2.90;45.10;;;;;;4917324;29;21003;-89
2021/01/10 03:20:48;;;;;;;14.50;10.38;;;3.30;45.60;;;;;;4916644;29;20175;-89
2021/01/10 03:26:07;;;;;;;14.60;10.37;;;2.30;45.00;;;;;;868905;22;826356;-89
2021/01/10 03:36:16;;;;;;;10.95;9.15;;;2.80;46.00;;;;;;5050996;28;20222;-89
2021/01/10 03:38:42;;;;;;;12.20;10.25;;;2.50;45.00;;;;;;5034798;28;20162;-89
2021/01/10 03:41:09;;;;;;;14.38;11.75;;;2.80;45.70;;;;;;5034194;28;20189;-88
2021/01/10 03:43:53;;;;;;;13.40;10.23;;;3.00;45.40;;;;;;5034428;28;20163;-89
2021/01/10 03:46:18;;;;;;;13.35;9.40;;;3.20;45.10;;;;;;5034532;28;20159;-88
2021/01/10 03:48:44;;;;;;;11.80;9.77;;;2.50;44.50;;;;;;5034533;28;20680;-88
2021/01/10 03:51:48;;;;;;;12.17;10.67;;;3.10;44.60;;;;;;5034577;28;20209;-89
2021/01/10 03:54:14;;;;;;;15.05;11.75;;;3.10;45.20;;;;;;5034496;28;20166;-87
2021/01/10 03:56:39;;;;;;;13.10;9.97;;;2.50;43.70;;;;;;5034346;28;20179;-89
2021/01/10 03:59:24;;;;;;;12.47;9.30;;;3.00;44.30;;;;;;5034238;28;20610;-89
2021/01/10 04:01:50;;;;;;;13.75;9.90;;;3.00;44.30;;;;;;5034354;28;20622;-89
2021/01/10 04:04:15;;;;;;;13.40;10.73;;;3.00;45.30;;;;;;5034137;28;20197;-89
2021/01/10 04:06:55;;;;;;;12.63;10.87;;;2.30;44.80;;;;;;5034066;28;20234;-89
2021/01/10 04:09:21;;;;;;;13.50;11.45;;;2.80;45.70;;;;;;5034202;28;20587;-88
2021/01/10 04:11:47;;;;;;;14.07;11.37;;;2.30;45.40;;;;;;5035318;28;20163;-88
2021/01/10 04:14:12;;;;;;;16.17;11.40;;;3.00;46.20;;;;;;5053298;28;20159;-88
2021/01/10 04:16:38;;;;;;;17.27;11.77;;;2.40;45.90;;;;;;5034964;28;20253;-89
2021/01/10 04:19:59;;;;;;;10.97;9.37;;;2.00;46.10;;;;;;5034652;28;20194;-88
2021/01/10 04:22:24;;;;;;;14.68;10.95;;;2.40;47.20;;;;;;5034972;28;20221;-89
2021/01/10 04:24:53;;;;;;;12.23;10.30;;;2.70;46.30;;;;;;5034515;28;20202;-89
2021/01/10 04:27:38;;;;;;;11.90;9.93;;;2.20;46.00;;;;;;5034640;28;20576;-89
2021/01/10 04:30:06;;;;;;;14.50;10.35;;;2.70;46.60;;;;;;5035054;28;20672;-88
2021/01/10 04:32:31;;;;;;;14.35;10.80;;;2.60;46.50;;;;;;5035085;28;20159;-89
2021/01/10 04:34:57;;;;;;;13.13;9.80;;;2.60;45.80;;;;;;5033783;28;20224;-89
2021/01/10 04:37:22;;;;;;;14.50;11.73;;;2.30;44.90;;;;;;5021424;28;20643;-89
2021/01/10 04:39:48;;;;;;;10.17;8.83;;;3.20;45.50;;;;;;5021379;28;20537;-89
2021/01/10 04:42:14;;;;;;;9.70;8.50;;;2.90;45.10;;;;;;5021260;28;20602;-88
2021/01/10 04:44:47;;;;;;;14.50;11.20;;;2.60;44.40;;;;;;5021202;28;20198;-89
2021/01/10 04:47:14;;;;;;;12.68;9.25;;;2.40;44.00;;;;;;5021178;28;20163;-90
2021/01/10 04:49:40;;;;;;;13.40;11.80;;;3.50;44.20;;;;;;5021334;28;20163;-90
2021/01/10 04:52:21;;;;;;;12.40;10.32;;;2.90;43.70;;;;;;5020961;28;20171;-89
2021/01/10 04:54:47;;;;;;;12.05;9.25;;;2.90;44.00;;;;;;5021273;28;20163;-89
2021/01/10 04:57:13;;;;;;;14.63;10.83;;;2.90;43.70;;;;;;5020367;28;20228;-89
2021/01/10 04:59:43;;;;;;;12.90;10.02;;;2.60;44.40;;;;;;5020272;28;20168;-89
2021/01/10 05:02:10;;;;;;;12.07;8.80;;;2.20;44.00;;;;;;5021172;28;20287;-88
2021/01/10 05:04:36;;;;;;;12.88;10.07;;;2.90;44.60;;;;;;5020941;28;20274;-89
2021/01/10 05:07:03;;;;;;;11.43;9.20;;;2.90;45.10;;;;;;5021165;28;20159;-88
2021/01/10 05:09:31;;;;;;;12.45;8.98;;;2.70;44.60;;;;;;5020472;28;20249;-88
2021/01/10 05:11:57;;;;;;;12.38;8.77;;;2.50;45.60;;;;;;5021034;28;20159;-88
2021/01/10 05:14:43;;;;;;;14.13;10.23;;;2.60;45.20;;;;;;5038497;28;20155;-87
2021/01/10 05:17:20;;;;;;;11.95;9.65;;;2.60;46.00;;;;;;5021135;28;20167;-89
2021/01/10 05:19:49;;;;;;;10.73;8.25;;;2.20;45.20;;;;;;5021247;28;20173;-88
2021/01/10 05:22:21;;;;;;;12.05;9.40;;;2.70;45.80;;;;;;5020710;28;20217;-89
2021/01/10 05:24:48;;;;;;;12.50;9.45;;;2.80;45.20;;;;;;5021286;28;20195;-89
2021/01/10 05:27:14;;;;;;;10.77;9.13;;;2.10;45.00;;;;;;5021156;28;20159;-90
2021/01/10 05:30:16;;;;;;;13.30;9.83;;;2.10;44.10;;;;;;5021331;28;20164;-93
2021/01/10 05:32:42;;;;;;;12.20;9.52;;;2.70;45.30;;;;;;5021283;28;20186;-92
2021/01/10 05:35:08;;;;;;;10.63;8.70;;;2.50;44.40;;;;;;5021096;28;20218;-92
2021/01/10 05:37:36;;;;;;;12.75;10.50;;;2.80;44.70;;;;;;5022257;28;20861;-93
2021/01/10 05:40:05;;;;;;;13.23;10.05;;;2.20;43.70;;;;;;5021886;28;20170;-93
2021/01/10 05:45:53;;;;;;;12.55;9.70;;;2.90;44.70;;;;;;5038754;28;20198;-92
2021/01/10 05:51:41;;;;;;;10.13;8.45;;;3.30;44.10;;;;;;5038225;28;20186;-93
2021/01/10 05:57:29;;;;;;;11.88;8.80;;;3.30;43.50;;;;;;5038285;28;20377;-92
2021/01/10 06:00:05;;;;;;;12.63;9.17;;;3.10;42.80;;;;;;5019431;28;20167;-88
2021/01/10 06:02:35;;;;;;;12.20;10.30;;;3.40;43.10;;;;;;5019277;28;20409;-88
2021/01/10 06:05:14;;;;;;;12.02;8.65;;;3.30;42.60;;;;;;5019473;28;20213;-88
2021/01/10 06:07:41;;;;;;;10.48;7.75;;;3.10;42.70;;;;;;5019314;28;20159;-88
2021/01/10 06:10:29;;;;;;;11.55;7.82;;;3.00;42.90;;;;;;5021122;28;20159;-88
2021/01/10 06:13:05;;;;;;;11.18;8.32;;;3.10;43.80;;;;;;5019642;28;20160;-89
2021/01/10 06:15:33;;;;;;;9.52;8.30;;;3.20;42.90;;;;;;5019619;28;20691;-89
2021/01/10 06:18:01;;;;;;;9.88;8.00;;;2.50;42.00;;;;;;5019317;28;20230;-89
2021/01/10 06:20:28;;;;;;;9.57;8.45;;;2.90;42.30;;;;;;5019437;28;20189;-89
2021/01/10 06:23:41;;;;;;;10.65;8.55;;;3.40;42.70;;;;;;5019300;28;20160;-88
2021/01/10 06:26:07;;;;;;;10.27;8.60;;;3.40;43.20;;;;;;5019159;28;20167;-88
2021/01/10 06:28:53;;;;;;;10.90;8.50;;;3.30;42.90;;;;;;5019184;28;20165;-89
2021/01/10 06:31:22;;;;;;;11.18;9.30;;;3.60;43.70;;;;;;5020001;28;20163;-88
2021/01/10 06:33:55;;;;;;;11.90;9.32;;;2.70;42.20;;;;;;5037885;28;20230;-93
2021/01/10 06:36:22;;;;;;;14.55;10.57;;;2.80;43.20;;;;;;5020816;28;20217;-93
2021/01/10 06:38:57;;;;;;;10.65;9.35;;;2.50;42.70;;;;;;5019536;28;20167;-89
2021/01/10 06:41:25;;;;;;;13.32;8.75;;;3.30;44.50;;;;;;5019649;28;20205;-89
2021/01/10 06:44:32;;;;;;;10.85;8.27;;;2.50;43.30;;;;;;5022595;28;20218;-89
2021/01/10 06:46:57;;;;;;;11.57;8.75;;;2.90;43.60;;;;;;5019121;28;20163;-88
2021/01/10 06:49:36;;;;;;;12.60;9.47;;;3.10;43.70;;;;;;5019084;28;20599;-89
2021/01/10 06:52:04;;;;;;;11.48;9.05;;;2.30;42.80;;;;;;5019085;28;20167;-89
2021/01/10 06:54:50;;;;;;;12.07;8.52;;;2.80;43.50;;;;;;5019309;28;20233;-88
2021/01/10 06:57:16;;;;;;;10.50;9.13;;;2.60;43.70;;;;;;5019196;28;20174;-89
2021/01/10 06:59:58;;;;;;;13.93;10.13;;;2.70;43.70;;;;;;5017998;28;20594;-89
2021/01/10 07:02:25;;;;;;;13.45;10.02;;;2.70;44.20;;;;;;5018746;28;20782;-88
2021/01/10 07:05:06;;;;;;;11.00;9.90;;;1.90;43.80;;;;;;5018644;28;20191;-87
2021/01/10 07:07:41;;;;;;;12.15;9.45;;;2.40;45.20;;;;;;5019965;28;20171;-88
2021/01/10 07:10:09;;;;;;;10.60;9.23;;;2.60;45.60;;;;;;5019231;28;20167;-89
2021/01/10 07:12:35;;;;;;;12.00;9.25;;;2.70;44.70;;;;;;5021703;28;20198;-89
2021/01/10 07:15:25;;;;;;;11.30;9.87;;;2.10;43.90;;;;;;5018355;28;20174;-89
2021/01/10 07:18:05;;;;;;;11.65;9.68;;;3.00;45.00;;;;;;5018756;28;20178;-89
2021/01/10 07:20:40;;;;;;;10.73;9.00;;;2.90;44.60;;;;;;5018926;28;20198;-89
2021/01/10 07:23:26;;;;;;;11.57;9.80;;;2.50;43.50;;;;;;5018401;28;20180;-88
2021/01/10 07:25:52;;;;;;;12.35;10.15;;;3.40;43.90;;;;;;5021055;28;20199;-88
2021/01/10 07:28:32;;;;;;;11.52;9.50;;;2.20;43.60;;;;;;5017591;28;20652;-88
2021/01/10 07:31:07;;;;;;;11.30;9.38;;;2.40;44.10;;;;;;5018282;28;20621;-88
2021/01/10 07:33:33;;;;;;;12.60;9.23;;;2.90;45.40;;;;;;5018326;28;20274;-90
2021/01/10 07:35:59;;;;;;;13.07;10.13;;;2.40;44.40;;;;;;5018267;28;20226;-86
2021/01/10 07:38:44;;;;;;;13.35;10.88;;;2.50;45.10;;;;;;5018111;28;20178;-90
2021/01/10 07:41:24;;;;;;;14.45;11.52;;;2.40;46.90;;;;;;5018529;28;20533;-88
2021/01/10 07:43:58;;;;;;;12.70;10.25;;;2.50;46.40;;;;;;5034222;28;20163;-88
2021/01/10 07:46:57;;;;;;;14.80;10.93;;;2.40;46.10;;;;;;5018517;28;20242;-89
2021/01/10 07:49:25;;;;;;;14.50;11.65;;;2.40;46.90;;;;;;4999661;28;20298;-89
2021/01/10 07:52:39;;;;;;;13.85;10.75;;;2.20;46.70;;;;;;5018898;28;20171;-89
2021/01/10 07:55:25;;;;;;;13.73;10.30;;;2.30;46.90;;;;;;5018845;28;20170;-90
2021/01/10 07:58:34;;;;;;;13.30;9.75;;;2.20;46.70;;;;;;5019245;28;20167;-90
2021/01/10 08:00:59;;;;;;;12.43;11.13;;;2.10;47.40;;;;;;5016579;28;20428;-90
2021/01/10 08:03:49;;;;;;;13.00;10.70;;;2.20;46.70;;;;;;5019510;28;20167;-88
2021/01/10 08:06:14;;;;;;;12.48;9.80;;;2.10;47.50;;;;;;5017920;28;20262;-88
2021/01/10 08:08:48;;;;;;;11.30;9.90;;;2.30;46.80;;;;;;5036112;28;20354;-88
2021/01/10 08:11:32;;;;;;;13.40;10.07;;;2.20;47.40;;;;;;5019497;28;20170;-88
2021/01/10 08:14:18;;;;;;;13.93;9.88;;;3.00;47.10;;;;;;5039564;28;20228;-88
2021/01/10 08:16:44;;;;;;;11.65;9.60;;;2.60;47.30;;;;;;5035541;28;20173;-89
2021/01/10 08:19:29;;;;;;;12.57;10.10;;;2.80;45.70;;;;;;5033555;28;20167;-89
2021/01/10 08:21:55;;;;;;;12.32;10.02;;;2.90;46.00;;;;;;5022739;28;20166;-89
2021/01/10 08:24:21;;;;;;;11.30;10.20;;;2.90;44.90;;;;;;5022070;28;20248;-89
2021/01/10 08:27:10;;;;;;;9.30;7.73;;;2.90;44.60;;;;;;5022215;28;20155;-89
2021/01/10 08:29:36;;;;;;;10.75;9.65;;;3.20;44.50;;;;;;5024454;28;20168;-89
2021/01/10 08:32:02;;;;;;;11.75;9.05;;;3.50;43.90;;;;;;5023977;28;20170;-89
2021/01/10 08:35:01;;;;;;;10.50;8.50;;;3.60;43.20;;;;;;5041885;28;20169;-88
2021/01/10 08:37:27;;;;;;;10.48;9.35;;;3.70;44.10;;;;;;5021034;28;20410;-88
2021/01/10 08:40:02;;;;;;;12.27;9.30;;;4.10;43.30;;;;;;5021796;28;20175;-92
2021/01/10 08:42:41;;;;;;;12.07;9.88;;;3.70;42.90;;;;;;5021436;28;20401;-90
2021/01/10 08:45:15;;;;;;;8.90;8.00;;;3.40;42.40;;;;;;5020730;28;20187;-88
2021/01/10 08:47:51;;;;;;;9.10;7.57;;;3.30;41.70;;;;;;5021286;28;20170;-89
2021/01/10 08:50:17;;;;;;;9.45;7.80;;;3.80;41.00;;;;;;5021565;28;20163;-88
2021/01/10 08:52:57;;;;;;;9.47;7.97;;;3.60;41.00;;;;;;5021547;28;20529;-87
2021/01/10 08:55:41;;;;;;;9.32;8.27;;;4.00;41.70;;;;;;5020608;28;20167;-87
2021/01/10 08:58:17;;;;;;;10.75;8.75;;;4.40;42.70;;;;;;5021693;28;20163;-93
2021/01/10 09:00:43;;;;;;;9.32;7.43;;;4.10;41.20;;;;;;5022259;28;20171;-92
2021/01/10 09:03:21;;;;;;;9.20;8.40;;;4.20;41.00;;;;;;5023536;28;20221;-89
2021/01/10 09:05:49;;;;;;;8.30;7.40;;;3.50;39.90;;;;;;5022939;28;21011;-89
2021/01/10 09:08:23;;;;;;;9.00;7.55;;;3.80;41.00;;;;;;5021016;28;20163;-87
2021/01/10 09:11:06;;;;;;;14.70;12.82;;;3.80;41.00;;;;;;5022261;28;20163;-87
2021/01/10 09:13:35;;;;;;;14.07;12.65;;;3.70;40.20;;;;;;5022421;28;20528;-93
2021/01/10 09:16:03;;;;;;;12.60;9.70;;;4.00;41.20;;;;;;5005551;28;20282;-92
2021/01/10 09:18:32;;;;;;;14.23;12.75;;;4.20;41.10;;;;;;5001798;28;20529;-92
2021/01/10 09:23:53;;;;;;;10.98;9.70;;;4.50;41.30;;;;;;5038710;28;20235;-88
2021/01/10 09:26:32;;;;;;;10.35;9.25;;;4.20;41.20;;;;;;5020578;28;20701;-95
2021/01/10 09:29:18;;;;;;;9.95;8.98;;;4.20;41.10;;;;;;5018808;28;20199;-90
2021/01/10 09:31:47;;;;;;;23.40;21.20;;;4.30;41.20;;;;;;5017567;28;20167;-93
2021/01/10 09:34:25;;;;;;;9.38;8.43;;;4.00;39.50;;;;;;5024597;28;20163;-96
2021/01/10 09:37:08;;;;;;;11.68;8.75;;;4.60;40.80;;;;;;5016716;28;20179;-92
2021/01/10 09:39:42;;;;;;;13.85;12.43;;;4.30;39.80;;;;;;5016164;28;20163;-92
2021/01/10 09:42:09;;;;;;;20.48;18.38;;;4.40;40.30;;;;;;5013498;28;20611;-91
2021/01/10 09:44:35;;;;;;;14.18;12.65;;;4.00;39.00;;;;;;5006548;28;20203;-92
2021/01/10 09:47:14;;;;;;;8.33;7.23;;;4.40;39.30;;;;;;4999925;28;20263;-91
2021/01/10 09:49:43;;;;;;;28.27;23.15;;;4.20;39.20;;;;;;5001542;28;20340;-91
2021/01/10 09:52:12;;;;;;;11.43;10.18;;;4.40;39.60;;;;;;5001183;28;20172;-92
2021/01/10 09:54:57;;;;;;;12.00;10.75;;;4.30;40.20;;;;;;5026253;28;20179;-92
2021/01/10 09:57:23;;;;;;;10.43;8.77;;;4.30;40.90;;;;;;5019433;28;20198;-91
2021/01/10 10:00:08;;;;;;;10.80;8.82;;;4.40;40.20;;;;;;5020244;28;20171;-91
2021/01/10 10:02:37;;;;;;;9.32;8.38;;;4.30;40.20;;;;;;5020748;28;20198;-91
2021/01/10 10:08:25;;;;;;;10.32;7.10;;;4.40;40.20;;;;;;5040701;28;20226;-95
2021/01/10 10:14:15;;;;;;;11.60;10.48;;;4.50;39.70;;;;;;5047388;28;20389;-91
2021/01/10 10:16:42;;;;;;;8.40;6.53;;;4.40;38.10;;;;;;5022798;28;20174;-89
2021/01/10 10:19:08;;;;;;;9.25;8.38;;;4.50;38.10;;;;;;5025387;28;20273;-91
2021/01/10 10:21:46;;;;;;;7.35;6.28;;;4.50;38.90;;;;;;5032597;28;20673;-90
2021/01/10 10:24:15;;;;;;;8.13;7.35;;;4.30;37.70;;;;;;5009176;28;20210;-84
2021/01/10 10:26:43;;;;;;;6.25;5.60;;;3.80;36.80;;;;;;5001206;28;20627;-90
2021/01/10 10:29:09;;;;;;;7.53;6.07;;;3.90;36.50;;;;;;5007698;28;20649;-90
2021/01/10 10:31:54;;;;;;;8.10;6.40;;;3.90;37.70;;;;;;4999998;28;20164;-89
2021/01/10 10:34:19;;;;;;;6.05;5.45;;;4.40;38.90;;;;;;4998995;28;20631;-89
2021/01/10 10:36:59;;;;;;;5.63;5.10;;;4.50;37.90;;;;;;4999836;28;20168;-89
2021/01/10 10:39:26;;;;;;;5.45;5.00;;;4.60;37.60;;;;;;5021255;28;20160;-90
2021/01/10 10:42:15;;;;;;;5.97;5.38;;;4.80;37.00;;;;;;5017375;28;20218;-88
2021/01/10 10:44:42;;;;;;;8.40;6.63;;;4.70;37.30;;;;;;5019604;28;20199;-90
2021/01/10 10:47:27;;;;;;;8.25;7.43;;;4.90;36.50;;;;;;5020203;28;20163;-92
2021/01/10 10:49:53;;;;;;;6.43;5.57;;;5.00;37.10;;;;;;5019880;28;20419;-89
2021/01/10 10:52:32;;;;;;;6.20;5.60;;;4.90;36.20;;;;;;5019401;28;20174;-90
2021/01/10 10:54:58;;;;;;;6.60;5.88;;;4.70;35.90;;;;;;5019055;28;20170;-89
2021/01/10 10:57:28;;;;;;;6.15;5.05;;;4.80;35.90;;;;;;5020046;28;20195;-94
2021/01/10 10:59:54;;;;;;;4.32;3.70;;;5.00;36.40;;;;;;5020621;28;20202;-96
2021/01/10 11:05:45;;;;;;;7.78;7.07;;;5.30;36.10;;;;;;5037744;28;20245;-94
2021/01/10 11:18:05;;;;;;;5.47;4.97;;;5.20;36.30;;;;;;4997985;28;20174;-95
2021/01/10 11:20:39;;;;;;;5.50;4.80;;;5.10;35.40;;;;;;4979422;28;20650;-90
2021/01/10 11:23:07;;;;;;;6.45;5.85;;;5.00;35.00;;;;;;4977924;28;20714;-92
2021/01/10 11:25:35;;;;;;;6.82;6.07;;;4.80;35.10;;;;;;4979362;28;20195;-92
2021/01/10 11:28:29;;;;;;;9.43;6.57;;;5.20;35.00;;;;;;5001414;28;20175;-92
2021/01/10 11:30:54;;;;;;;8.15;7.35;;;5.50;35.90;;;;;;4988053;28;20169;-93
2021/01/10 11:33:32;;;;;;;6.83;6.13;;;5.60;34.70;;;;;;4975354;28;20176;-92
2021/01/10 11:35:58;;;;;;;6.65;6.05;;;5.80;34.30;;;;;;5000064;28;20741;-91
2021/01/10 11:38:26;;;;;;;6.43;5.83;;;5.80;33.60;;;;;;4997565;28;20214;-92
2021/01/10 11:40:51;;;;;;;7.15;6.43;;;5.70;33.60;;;;;;4991261;28;20181;-92
2021/01/10 11:43:17;;;;;;;7.33;6.53;;;5.70;33.70;;;;;;4962988;28;20180;-92
2021/01/10 11:45:43;;;;;;;8.57;7.73;;;5.80;33.70;;;;;;5023490;28;20214;-92
2021/01/10 11:48:15;;;;;;;10.73;9.63;;;5.20;33.80;;;;;;5033864;28;20814;-91
2021/01/10 11:50:40;;;;;;;6.88;6.18;;;5.60;33.90;;;;;;5023890;28;20625;-92
2021/01/10 11:53:14;;;;;;;10.03;8.97;;;5.40;34.70;;;;;;5022577;28;20174;-93
2021/01/10 11:55:39;;;;;;;7.40;6.65;;;4.90;34.10;;;;;;5022079;28;20189;-92
2021/01/10 11:58:11;;;;;;;7.33;6.37;;;5.10;34.10;;;;;;5022113;28;20171;-92
2021/01/10 12:00:37;;;;;;;10.60;6.28;;;5.60;34.90;;;;;;5022436;28;20171;-92
2021/01/10 12:03:26;;;;;;;6.80;5.93;;;5.50;34.20;;;;;;5022655;28;20581;-93
2021/01/10 12:05:52;;;;;;;7.03;6.32;;;5.70;34.40;;;;;;5022499;28;20277;-93
2021/01/10 12:08:21;;;;;;;7.68;6.88;;;5.80;34.00;;;;;;5022029;28;20186;-94
2021/01/10 12:10:47;;;;;;;7.65;6.85;;;6.00;34.50;;;;;;5026728;28;20717;-93
2021/01/10 12:13:14;;;;;;;6.72;5.50;;;6.00;34.20;;;;;;5034956;28;20190;-93
2021/01/10 12:15:41;;;;;;;6.93;6.22;;;6.00;33.40;;;;;;5045014;28;20647;-92
2021/01/10 12:18:07;;;;;;;6.65;6.05;;;5.70;32.90;;;;;;5042258;28;20534;-89
2021/01/10 12:20:34;;;;;;;6.93;6.27;;;6.00;33.70;;;;;;5040359;28;20170;-91
2021/01/10 12:23:00;;;;;;;6.38;5.85;;;6.10;33.90;;;;;;5037962;28;20543;-87
2021/01/10 12:25:26;;;;;;;7.45;6.65;;;6.10;33.40;;;;;;5019711;28;20220;-86
2021/01/10 12:27:52;;;;;;;7.07;6.37;;;6.00;33.50;;;;;;5019453;28;20246;-87
2021/01/10 12:30:22;;;;;;;7.15;6.45;;;6.50;34.00;;;;;;5019739;28;20537;-88
2021/01/10 12:32:48;;;;;;;6.15;5.55;;;6.00;33.80;;;;;;5019521;28;20628;-87
2021/01/10 12:35:16;;;;;;;8.15;7.03;;;5.90;33.00;;;;;;5019929;28;20214;-86
2021/01/10 12:37:43;;;;;;;6.80;5.90;;;5.80;33.10;;;;;;5019693;28;20163;-87
2021/01/10 12:40:13;;;;;;;7.40;6.68;;;6.00;33.80;;;;;;5019622;28;20167;-87
2021/01/10 12:42:39;;;;;;;7.63;6.78;;;6.00;34.00;;;;;;5019529;28;20174;-88
2021/01/10 12:45:11;;;;;;;7.00;6.30;;;6.10;32.80;;;;;;5019912;28;20642;-87
2021/01/10 12:47:46;;;;;;;8.00;7.00;;;5.90;33.20;;;;;;5019800;28;20159;-87
2021/01/10 12:50:14;;;;;;;7.55;6.75;;;6.10;34.20;;;;;;5037532;28;20564;-87
2021/01/10 12:52:41;;;;;;;7.63;6.93;;;5.60;34.10;;;;;;5019437;28;20163;-88
2021/01/10 12:55:08;;;;;;;6.82;6.22;;;6.00;34.10;;;;;;5019618;28;20166;-89
2021/01/10 12:57:39;;;;;;;9.50;7.40;;;6.00;33.90;;;;;;5018962;28;20166;-87
2021/01/10 13:00:12;;;;;;;5.80;5.25;;;5.90;33.20;;;;;;5019023;28;20163;-88
2021/01/10 13:02:39;;;;;;;7.82;6.97;;;5.90;34.00;;;;;;5046916;28;20163;-88
2021/01/10 13:05:07;;;;;;;7.75;6.95;;;5.70;33.40;;;;;;5016457;28;20221;-88
2021/01/10 13:07:36;;;;;;;9.98;6.38;;;5.80;33.40;;;;;;5018938;28;20163;-87
2021/01/10 13:10:03;;;;;;;6.18;5.57;;;6.00;33.70;;;;;;5018334;28;20167;-87
2021/01/10 13:12:33;;;;;;;6.05;5.50;;;5.80;33.50;;;;;;5037896;28;20167;-88
2021/01/10 13:15:00;;;;;;;6.40;5.82;;;5.90;33.70;;;;;;5019487;28;20163;-87
2021/01/10 13:17:26;;;;;;;9.05;6.88;;;5.40;33.50;;;;;;5023874;28;20167;-87
2021/01/10 13:19:56;;;;;;;6.68;6.05;;;5.60;34.60;;;;;;5026142;28;20264;-88
2021/01/10 13:22:28;;;;;;;6.10;5.50;;;5.80;34.20;;;;;;5030219;28;20218;-88
2021/01/10 13:24:56;;;;;;;6.15;5.55;;;5.50;34.80;;;;;;5021193;28;20721;-88
2021/01/10 13:27:22;;;;;;;6.53;5.93;;;5.60;34.30;;;;;;5026144;28;20221;-86
2021/01/10 13:29:51;;;;;;;5.72;5.15;;;5.50;34.10;;;;;;5024712;28;20171;-88
2021/01/10 13:32:30;;;;;;;7.65;6.68;;;5.40;34.50;;;;;;5028954;28;20166;-87
2021/01/10 13:34:56;;;;;;;6.85;5.95;;;5.20;34.20;;;;;;5024965;28;20171;-90
2021/01/10 13:37:35;;;;;;;7.30;5.67;;;5.60;34.10;;;;;;5028193;28;20186;-89
2021/01/10 13:40:00;;;;;;;7.70;6.05;;;5.70;34.60;;;;;;5026488;28;20210;-89
2021/01/10 13:42:34;;;;;;;8.10;7.03;;;5.00;34.00;;;;;;5028460;28;20181;-91
2021/01/10 13:45:00;;;;;;;7.40;6.25;;;5.50;35.00;;;;;;5025868;28;20230;-89
2021/01/10 13:47:37;;;;;;;8.40;6.33;;;5.00;34.90;;;;;;5024936;28;20163;-90
2021/01/10 13:50:03;;;;;;;7.68;6.20;;;4.70;35.50;;;;;;5019612;28;20529;-90
2021/01/10 13:52:43;;;;;;;7.70;6.90;;;5.10;35.70;;;;;;5019418;28;20195;-88
2021/01/10 13:55:09;;;;;;;6.72;6.13;;;5.10;36.00;;;;;;5019397;28;20258;-90
2021/01/10 13:57:49;;;;;;;7.83;6.90;;;4.90;36.10;;;;;;5019015;28;20186;-90
2021/01/10 14:00:16;;;;;;;7.15;6.45;;;5.10;36.00;;;;;;5021750;28;20424;-87
2021/01/10 14:02:55;;;;;;;8.75;6.10;;;4.70;36.10;;;;;;5029096;28;20222;-90
2021/01/10 14:05:21;;;;;;;7.75;7.03;;;4.90;36.30;;;;;;5025186;28;20201;-89
2021/01/10 14:07:49;;;;;;;7.47;6.75;;;4.80;36.80;;;;;;5038528;28;20167;-89
2021/01/10 14:10:16;;;;;;;7.95;7.15;;;4.80;36.30;;;;;;5038059;28;20198;-88
2021/01/10 14:12:43;;;;;;;7.55;6.55;;;5.00;36.40;;;;;;5039164;28;20166;-89
2021/01/10 14:15:10;;;;;;;7.60;6.22;;;4.50;36.00;;;;;;5019800;28;20175;-88
2021/01/10 14:17:37;;;;;;;7.03;6.43;;;4.90;35.80;;;;;;5033190;28;20544;-88
2021/01/10 14:20:04;;;;;;;9.90;6.90;;;4.60;36.80;;;;;;5019982;28;20163;-89
2021/01/10 14:22:33;;;;;;;7.47;6.72;;;4.70;37.20;;;;;;5009326;28;20228;-90